createdAt,value
2018-12-14T00:01:00.385Z,0
2018-12-14T00:02:00.788Z,0
2018-12-14T00:03:01.313Z,0
2018-12-14T00:04:01.995Z,0
2018-12-14T00:05:02.126Z,0
2018-12-14T00:06:03.674Z,0
2018-12-14T00:07:04.200Z,0
2018-12-14T00:08:04.602Z,0
2018-12-14T00:09:05.007Z,0
2018-12-14T00:10:05.410Z,0
2018-12-14T00:11:06.814Z,0
2018-12-14T00:12:08.221Z,0
2018-12-14T00:13:09.306Z,0
2018-12-14T00:14:09.988Z,0
2018-12-14T00:15:10.392Z,0
2018-12-14T00:16:11.360Z,0
2018-12-14T00:17:12.315Z,0
2018-12-14T00:18:12.998Z,0
2018-12-14T00:19:14.795Z,0
2018-12-14T00:20:14.476Z,0
2018-12-14T00:21:15.157Z,0
2018-12-14T00:22:15.621Z,0
2018-12-14T00:23:15.998Z,0
2018-12-14T00:24:16.681Z,0
2018-12-14T00:25:16.808Z,0
2018-12-14T00:26:17.938Z,0
2018-12-14T00:27:18.343Z,0
2018-12-14T00:28:20.302Z,0
2018-12-14T00:29:20.430Z,0
2018-12-14T00:30:21.829Z,0
2018-12-14T00:31:22.236Z,0
2018-12-14T00:32:23.642Z,0
2018-12-14T00:33:24.728Z,0
2018-12-14T00:34:26.693Z,0
2018-12-14T00:35:26.817Z,0
2018-12-14T00:36:27.954Z,0
2018-12-14T00:37:29.354Z,0
2018-12-14T00:38:30.038Z,0
2018-12-14T00:39:30.442Z,0
2018-12-14T00:40:30.569Z,0
2018-12-14T00:41:30.971Z,0
2018-12-14T00:42:32.390Z,0
2018-12-14T00:43:33.217Z,0
2018-12-14T00:44:34.177Z,0
2018-12-14T00:45:34.302Z,0
2018-12-14T00:46:35.428Z,0
2018-12-14T00:47:36.553Z,0
2018-12-14T00:48:37.233Z,0
2018-12-14T00:49:37.914Z,0
2018-12-14T00:50:38.042Z,0
2018-12-14T00:51:39.445Z,0
2018-12-14T00:52:40.125Z,0
2018-12-14T00:53:40.716Z,0
2018-12-14T00:54:41.120Z,0
2018-12-14T00:55:42.362Z,0
2018-12-14T00:56:42.525Z,0
2018-12-14T00:57:43.207Z,0
2018-12-14T00:58:43.633Z,0
2018-12-14T00:59:44.034Z,0
2018-12-14T01:00:44.437Z,0
2018-12-14T01:01:45.114Z,0
2018-12-14T01:02:45.798Z,0
2018-12-14T01:03:46.183Z,0
2018-12-14T01:04:46.589Z,0
2018-12-14T01:05:47.544Z,0
2018-12-14T01:06:47.671Z,0
2018-12-14T01:07:49.073Z,0
2018-12-14T01:08:49.477Z,0
2018-12-14T01:09:50.211Z,0
2018-12-14T01:10:50.614Z,0
2018-12-14T01:11:50.812Z,0
2018-12-14T01:12:52.234Z,0
2018-12-14T01:13:52.795Z,0
2018-12-14T01:14:54.208Z,0
2018-12-14T01:15:54.902Z,0
2018-12-14T01:16:55.318Z,0
2018-12-14T01:17:57.019Z,0
2018-12-14T01:18:57.710Z,0
2018-12-14T01:19:58.697Z,0
2018-12-14T01:20:59.391Z,0
2018-12-14T01:21:59.805Z,0
2018-12-14T01:23:01.219Z,0
2018-12-14T01:24:02.318Z,0
2018-12-14T01:25:02.737Z,0
2018-12-14T01:26:03.433Z,0
2018-12-14T01:27:04.402Z,0
2018-12-14T01:28:04.817Z,0
2018-12-14T01:29:06.234Z,0
2018-12-14T01:30:06.929Z,0
2018-12-14T01:31:07.896Z,0
2018-12-14T01:32:08.929Z,0
2018-12-14T01:33:09.073Z,0
2018-12-14T01:34:10.505Z,0
2018-12-14T01:35:10.642Z,0
2018-12-14T01:36:11.394Z,0
2018-12-14T01:37:12.647Z,0
2018-12-14T01:38:12.063Z,0
2018-12-14T01:39:13.479Z,0
2018-12-14T01:40:13.893Z,0
2018-12-14T01:41:15.420Z,0
2018-12-14T01:42:15.399Z,0
2018-12-14T01:43:16.087Z,0
2018-12-14T01:44:16.936Z,0
2018-12-14T01:45:17.352Z,0
2018-12-14T01:46:18.045Z,0
2018-12-14T01:47:18.467Z,0
2018-12-14T01:48:20.035Z,0
2018-12-14T01:49:20.730Z,0
2018-12-14T01:50:21.144Z,0
2018-12-14T01:51:21.842Z,0
2018-12-14T01:52:21.987Z,0
2018-12-14T01:53:23.681Z,0
2018-12-14T01:54:24.266Z,0
2018-12-14T01:55:24.962Z,0
2018-12-14T01:56:25.380Z,0
2018-12-14T01:57:25.793Z,0
2018-12-14T01:58:26.215Z,0
2018-12-14T01:59:26.701Z,0
2018-12-14T02:00:26.836Z,0
2018-12-14T02:01:28.529Z,0
2018-12-14T02:02:28.940Z,0
2018-12-14T02:03:29.656Z,0
2018-12-14T02:04:30.474Z,0
2018-12-14T02:05:31.784Z,0
2018-12-14T02:06:32.477Z,0
2018-12-14T02:07:33.458Z,0
2018-12-14T02:08:34.150Z,0
2018-12-14T02:09:34.844Z,0
2018-12-14T02:10:35.813Z,0
2018-12-14T02:11:36.007Z,0
2018-12-14T02:12:37.422Z,0
2018-12-14T02:13:38.671Z,0
2018-12-14T02:14:38.814Z,0
2018-12-14T02:15:39.789Z,0
2018-12-14T02:16:39.930Z,0
2018-12-14T02:17:40.685Z,0
2018-12-14T02:18:41.380Z,0
2018-12-14T02:19:42.135Z,0
2018-12-14T02:20:43.380Z,0
2018-12-14T02:21:43.577Z,0
2018-12-14T02:22:44.549Z,0
2018-12-14T02:23:44.966Z,0
2018-12-14T02:24:45.534Z,0
2018-12-14T02:25:46.510Z,0
2018-12-14T02:26:46.479Z,0
2018-12-14T02:27:46.899Z,0
2018-12-14T02:28:48.315Z,0
2018-12-14T02:29:49.067Z,0
2018-12-14T02:30:49.762Z,0
2018-12-14T02:31:51.284Z,0
2018-12-14T02:32:52.534Z,0
2018-12-14T02:33:52.950Z,0
2018-12-14T02:34:54.913Z,0
2018-12-14T02:35:55.454Z,0
2018-12-14T02:36:56.700Z,0
2018-12-14T02:37:58.015Z,0
2018-12-14T02:38:57.551Z,0
2018-12-14T02:39:57.692Z,0
2018-12-14T02:40:58.943Z,0
2018-12-14T02:41:59.913Z,0
2018-12-14T02:43:00.404Z,0
2018-12-14T02:44:00.818Z,0
2018-12-14T02:45:02.800Z,0
2018-12-14T02:46:03.052Z,0
2018-12-14T02:47:03.746Z,0
2018-12-14T02:48:04.443Z,0
2018-12-14T02:49:05.695Z,0
2018-12-14T02:50:05.665Z,0
2018-12-14T02:51:06.368Z,0
2018-12-14T02:52:07.628Z,0
2018-12-14T02:53:08.932Z,0
2018-12-14T02:54:09.199Z,0
2018-12-14T02:55:10.135Z,0
2018-12-14T02:56:10.850Z,0
2018-12-14T02:57:11.562Z,0
2018-12-14T02:58:12.253Z,0
2018-12-14T02:59:12.957Z,0
2018-12-14T03:00:14.206Z,0
2018-12-14T03:01:13.626Z,0
2018-12-14T03:02:14.321Z,0
2018-12-14T03:03:15.341Z,0
2018-12-14T03:04:15.907Z,0
2018-12-14T03:05:16.317Z,0
2018-12-14T03:06:17.016Z,0
2018-12-14T03:07:18.262Z,0
2018-12-14T03:08:17.696Z,0
2018-12-14T03:09:19.946Z,0
2018-12-14T03:10:20.472Z,0
2018-12-14T03:11:20.441Z,0
2018-12-14T03:12:32.605Z,0
2018-12-14T03:13:34.021Z,0
2018-12-14T03:14:34.282Z,0
2018-12-14T03:15:34.030Z,0
2018-12-14T03:16:35.126Z,0
2018-12-14T03:17:36.654Z,0
2018-12-14T03:18:37.641Z,0
2018-12-14T03:19:38.332Z,0
2018-12-14T03:20:39.586Z,0
2018-12-14T03:21:40.557Z,0
2018-12-14T03:22:41.315Z,0
2018-12-14T03:23:41.136Z,0
2018-12-14T03:24:43.135Z,0
2018-12-14T03:25:42.548Z,0
2018-12-14T03:26:44.640Z,0
2018-12-14T03:27:44.335Z,0
2018-12-14T03:28:45.309Z,0
2018-12-14T03:29:46.561Z,0
2018-12-14T03:30:47.840Z,0
2018-12-14T03:31:48.202Z,0
2018-12-14T03:32:49.333Z,0
2018-12-14T03:33:49.725Z,0
2018-12-14T03:34:50.141Z,0
2018-12-14T03:35:51.666Z,0
2018-12-14T03:36:52.080Z,0
2018-12-14T03:37:52.497Z,0
2018-12-14T03:38:53.467Z,0
2018-12-14T03:39:54.714Z,0
2018-12-14T03:40:55.425Z,0
2018-12-14T03:41:56.126Z,0
2018-12-14T03:42:56.548Z,0
2018-12-14T03:43:57.234Z,0
2018-12-14T03:44:57.482Z,0
2018-12-14T03:45:58.187Z,0
2018-12-14T03:46:58.600Z,0
2018-12-14T03:47:58.751Z,0
2018-12-14T03:49:00.743Z,0
2018-12-14T03:50:00.711Z,0
2018-12-14T03:51:01.406Z,0
2018-12-14T03:52:02.108Z,0
2018-12-14T03:53:03.644Z,0
2018-12-14T03:54:04.299Z,0
2018-12-14T03:55:05.546Z,0
2018-12-14T03:56:06.111Z,0
2018-12-14T03:57:06.360Z,0
2018-12-14T03:58:07.355Z,0
2018-12-14T03:59:07.325Z,0
2018-12-14T04:00:08.041Z,0
2018-12-14T04:01:09.291Z,0
2018-12-14T04:02:10.543Z,0
2018-12-14T04:03:11.513Z,0
2018-12-14T04:04:12.508Z,0
2018-12-14T04:05:12.927Z,0
2018-12-14T04:06:13.636Z,0
2018-12-14T04:07:14.739Z,0
2018-12-14T04:08:14.501Z,0
2018-12-14T04:09:15.473Z,0
2018-12-14T04:10:16.732Z,0
2018-12-14T04:11:16.422Z,0
2018-12-14T04:12:17.397Z,0
2018-12-14T04:13:17.387Z,0
2018-12-14T04:14:17.765Z,0
2018-12-14T04:15:18.734Z,0
2018-12-14T04:16:19.279Z,0
2018-12-14T04:17:19.248Z,0
2018-12-14T04:18:19.957Z,0
2018-12-14T04:19:20.654Z,0
2018-12-14T04:20:21.086Z,0
2018-12-14T04:21:21.783Z,0
2018-12-14T04:22:22.204Z,0
2018-12-14T04:23:23.464Z,0
2018-12-14T04:24:24.409Z,0
2018-12-14T04:25:24.400Z,0
2018-12-14T04:26:25.095Z,0
2018-12-14T04:27:25.797Z,0
2018-12-14T04:28:26.206Z,0
2018-12-14T04:29:27.740Z,0
2018-12-14T04:30:28.281Z,0
2018-12-14T04:31:28.262Z,0
2018-12-14T04:32:28.409Z,0
2018-12-14T04:33:30.157Z,0
2018-12-14T04:34:30.722Z,0
2018-12-14T04:35:31.139Z,0
2018-12-14T04:36:33.820Z,0
2018-12-14T04:37:33.806Z,0
2018-12-14T04:38:34.504Z,0
2018-12-14T04:39:34.927Z,0
2018-12-14T04:40:35.062Z,0
2018-12-14T04:41:36.321Z,0
2018-12-14T04:42:36.733Z,0
2018-12-14T04:43:37.707Z,0
2018-12-14T04:44:37.839Z,0
2018-12-14T04:45:38.812Z,0
2018-12-14T04:46:39.502Z,0
2018-12-14T04:47:41.063Z,0
2018-12-14T04:48:40.484Z,0
2018-12-14T04:49:41.477Z,0
2018-12-14T04:50:42.167Z,0
2018-12-14T04:51:43.140Z,0
2018-12-14T04:52:43.108Z,0
2018-12-14T04:53:43.644Z,0
2018-12-14T04:54:44.962Z,0
2018-12-14T04:55:44.113Z,0
2018-12-14T04:56:45.103Z,0
2018-12-14T04:57:45.823Z,0
2018-12-14T04:58:46.072Z,0
2018-12-14T04:59:46.786Z,0
2018-12-14T05:00:47.793Z,0
2018-12-14T05:01:48.768Z,0
2018-12-14T05:02:48.748Z,0
2018-12-14T05:03:50.027Z,0
2018-12-14T05:04:51.264Z,0
2018-12-14T05:05:50.956Z,0
2018-12-14T05:06:51.669Z,0
2018-12-14T05:07:52.358Z,0
2018-12-14T05:08:53.053Z,0
2018-12-14T05:09:54.580Z,0
2018-12-14T05:10:54.551Z,0
2018-12-14T05:11:54.967Z,0
2018-12-14T05:12:59.509Z,0
2018-12-14T05:13:59.531Z,0
2018-12-14T05:15:00.853Z,0
2018-12-14T05:16:02.391Z,0
2018-12-14T05:17:01.807Z,0
2018-12-14T05:18:02.499Z,0
2018-12-14T05:19:03.279Z,0
2018-12-14T05:20:04.543Z,0
2018-12-14T05:21:05.239Z,0
2018-12-14T05:22:05.376Z,0
2018-12-14T05:23:06.791Z,0
2018-12-14T05:24:07.763Z,0
2018-12-14T05:25:08.861Z,0
2018-12-14T05:26:09.556Z,0
2018-12-14T05:27:10.266Z,0
2018-12-14T05:28:10.727Z,0
2018-12-14T05:29:11.143Z,0
2018-12-14T05:30:11.555Z,0
2018-12-14T05:31:13.090Z,0
2018-12-14T05:32:13.791Z,0
2018-12-14T05:33:14.204Z,0
2018-12-14T05:34:15.177Z,0
2018-12-14T05:35:15.553Z,0
2018-12-14T05:36:16.536Z,0
2018-12-14T05:37:16.228Z,0
2018-12-14T05:38:17.923Z,0
2018-12-14T05:39:18.617Z,0
2018-12-14T05:40:19.589Z,0
2018-12-14T05:41:19.727Z,0
2018-12-14T05:42:20.867Z,0
2018-12-14T05:43:22.565Z,0
2018-12-14T05:44:23.258Z,0
2018-12-14T05:45:23.601Z,0
2018-12-14T05:46:25.078Z,0
2018-12-14T05:47:25.771Z,0
2018-12-14T05:48:26.464Z,0
2018-12-14T05:49:27.713Z,0
2018-12-14T05:50:28.960Z,0
2018-12-14T05:51:29.373Z,0
2018-12-14T05:52:30.069Z,0
2018-12-14T05:53:30.483Z,0
2018-12-14T05:54:31.179Z,0
2018-12-14T05:55:31.753Z,0
2018-12-14T05:56:32.444Z,0
2018-12-14T05:57:33.436Z,0
2018-12-14T05:58:34.131Z,0
2018-12-14T05:59:34.548Z,0
2018-12-14T06:00:35.520Z,0
2018-12-14T06:01:35.659Z,0
2018-12-14T06:02:36.351Z,0
2018-12-14T06:03:37.046Z,0
2018-12-14T06:04:37.464Z,0
2018-12-14T06:05:38.586Z,0
2018-12-14T06:06:40.553Z,0
2018-12-14T06:07:40.979Z,0
2018-12-14T06:08:41.948Z,0
2018-12-14T06:09:41.969Z,0
2018-12-14T06:10:42.384Z,0
2018-12-14T06:11:42.801Z,0
2018-12-14T06:12:43.494Z,0
2018-12-14T06:13:43.911Z,0
2018-12-14T06:14:44.882Z,0
2018-12-14T06:15:45.001Z,0
2018-12-14T06:16:46.415Z,0
2018-12-14T06:17:46.824Z,0
2018-12-14T06:18:48.515Z,0
2018-12-14T06:19:49.490Z,0
2018-12-14T06:20:49.904Z,0
2018-12-14T06:21:50.315Z,0
2018-12-14T06:22:51.008Z,0
2018-12-14T06:23:51.424Z,0
2018-12-14T06:24:51.838Z,0
2018-12-14T06:25:52.133Z,0
2018-12-14T06:26:54.379Z,0
2018-12-14T06:27:54.111Z,0
2018-12-14T06:28:54.518Z,0
2018-12-14T06:29:55.211Z,0
2018-12-14T06:30:56.629Z,0
2018-12-14T06:31:57.606Z,0
2018-12-14T06:32:57.299Z,0
2018-12-14T06:33:58.709Z,0
2018-12-14T06:34:59.399Z,0
2018-12-14T06:35:59.320Z,0
2018-12-14T06:36:59.458Z,0
2018-12-14T06:38:01.149Z,0
2018-12-14T06:39:01.287Z,0
2018-12-14T06:40:02.981Z,0
2018-12-14T06:41:04.237Z,0
2018-12-14T06:42:05.209Z,0
2018-12-14T06:43:05.630Z,0
2018-12-14T06:44:06.641Z,0
2018-12-14T06:45:07.335Z,0
2018-12-14T06:46:07.671Z,0
2018-12-14T06:47:08.541Z,0
2018-12-14T06:48:08.956Z,0
2018-12-14T06:49:10.105Z,0
2018-12-14T06:50:10.549Z,0
2018-12-14T06:51:10.968Z,0
2018-12-14T06:52:12.108Z,0
2018-12-14T06:53:13.258Z,0
2018-12-14T06:54:14.235Z,0
2018-12-14T06:55:14.410Z,0
2018-12-14T06:56:15.001Z,5.63
2018-12-14T06:57:16.010Z,5.63
2018-12-14T06:58:15.425Z,5.63
2018-12-14T06:59:16.173Z,5.63
2018-12-14T07:00:17.153Z,5.63
2018-12-14T07:01:18.247Z,5.63
2018-12-14T07:02:18.665Z,5.63
2018-12-14T07:03:19.364Z,5.63
2018-12-14T07:04:20.192Z,5.63
2018-12-14T07:05:20.335Z,5.63
2018-12-14T07:06:21.550Z,11.25
2018-12-14T07:07:22.802Z,11.25
2018-12-14T07:08:23.516Z,11.25
2018-12-14T07:09:24.119Z,11.25
2018-12-14T07:10:24.763Z,11.25
2018-12-14T07:11:27.932Z,11.25
2018-12-14T07:12:26.922Z,11.25
2018-12-14T07:13:27.341Z,16.88
2018-12-14T07:14:27.768Z,16.88
2018-12-14T07:15:28.474Z,16.88
2018-12-14T07:16:29.041Z,16.88
2018-12-14T07:17:29.181Z,16.88
2018-12-14T07:18:29.597Z,22.5
2018-12-14T07:19:31.289Z,22.5
2018-12-14T07:20:32.264Z,22.5
2018-12-14T07:21:32.407Z,28.13
2018-12-14T07:22:33.121Z,28.13
2018-12-14T07:23:34.332Z,28.13
2018-12-14T07:24:35.748Z,33.75
2018-12-14T07:25:37.030Z,33.75
2018-12-14T07:26:38.239Z,33.75
2018-12-14T07:27:38.534Z,39.38
2018-12-14T07:28:38.955Z,39.38
2018-12-14T07:29:40.216Z,39.38
2018-12-14T07:30:39.646Z,45
2018-12-14T07:31:40.086Z,45
2018-12-14T07:32:40.790Z,50.63
2018-12-14T07:33:41.213Z,50.63
2018-12-14T07:34:41.927Z,56.25
2018-12-14T07:35:44.584Z,61.88
2018-12-14T07:36:46.088Z,61.88
2018-12-14T07:37:46.788Z,61.88
2018-12-14T07:38:52.559Z,67.5
2018-12-14T07:39:51.356Z,67.5
2018-12-14T07:40:52.082Z,67.5
2018-12-14T07:41:52.500Z,73.13
2018-12-14T07:42:53.808Z,78.75
2018-12-14T07:43:53.338Z,78.75
2018-12-14T07:44:55.764Z,78.75
2018-12-14T07:45:54.105Z,84.38
2018-12-14T07:46:54.769Z,84.38
2018-12-14T07:47:56.327Z,84.38
2018-12-14T07:48:57.391Z,84.38
2018-12-14T07:49:57.181Z,90
2018-12-14T07:50:58.155Z,95.63
2018-12-14T07:51:59.467Z,101.25
2018-12-14T07:52:59.721Z,106.88
2018-12-14T07:54:00.421Z,106.88
2018-12-14T07:55:01.119Z,112.5
2018-12-14T07:56:01.537Z,112.5
2018-12-14T07:57:02.770Z,118.13
2018-12-14T07:58:02.752Z,123.75
2018-12-14T07:59:03.728Z,135
2018-12-14T08:00:04.433Z,140.63
2018-12-14T08:01:05.683Z,140.63
2018-12-14T08:02:06.787Z,146.25
2018-12-14T08:03:06.986Z,151.88
2018-12-14T08:04:08.286Z,157.5
2018-12-14T08:05:09.547Z,163.13
2018-12-14T08:06:09.968Z,174.38
2018-12-14T08:07:10.767Z,191.25
2018-12-14T08:08:12.407Z,208.13
2018-12-14T08:09:13.400Z,213.75
2018-12-14T08:10:14.130Z,213.75
2018-12-14T08:11:15.548Z,219.38
2018-12-14T08:12:16.244Z,241.88
2018-12-14T08:13:16.696Z,388.13
2018-12-14T08:14:17.416Z,646.88
2018-12-14T08:15:18.019Z,562.5
2018-12-14T08:16:18.447Z,590.63
2018-12-14T08:17:19.841Z,551.25
2018-12-14T08:18:19.286Z,680.63
2018-12-14T08:19:20.431Z,720
2018-12-14T08:20:21.855Z,511.88
2018-12-14T08:21:22.552Z,286.88
2018-12-14T08:22:23.036Z,219.38
2018-12-14T08:23:23.982Z,208.13
2018-12-14T08:24:25.176Z,202.5
2018-12-14T08:25:26.275Z,196.88
2018-12-14T08:26:26.476Z,196.88
2018-12-14T08:27:27.068Z,191.25
2018-12-14T08:28:27.487Z,196.88
2018-12-14T08:29:28.274Z,196.88
2018-12-14T08:30:28.816Z,213.75
2018-12-14T08:31:29.288Z,213.75
2018-12-14T08:32:30.102Z,393.75
2018-12-14T08:33:31.081Z,421.88
2018-12-14T08:34:31.780Z,247.5
2018-12-14T08:35:31.935Z,343.13
2018-12-14T08:36:32.358Z,736.88
2018-12-14T08:37:33.186Z,1136.25
2018-12-14T08:38:35.176Z,1125
2018-12-14T08:39:35.616Z,787.5
2018-12-14T08:40:36.318Z,585
2018-12-14T08:41:41.241Z,326.25
2018-12-14T08:42:38.757Z,281.25
2018-12-14T08:43:43.926Z,337.5
2018-12-14T08:44:44.628Z,506.25
2018-12-14T08:45:44.774Z,573.75
2018-12-14T08:46:46.317Z,585
2018-12-14T08:47:46.151Z,663.75
2018-12-14T08:48:46.302Z,641.25
2018-12-14T08:49:47.852Z,489.38
2018-12-14T08:50:48.788Z,337.5
2018-12-14T08:51:49.244Z,376.88
2018-12-14T08:52:50.663Z,506.25
2018-12-14T08:53:51.713Z,624.38
2018-12-14T08:54:53.688Z,697.5
2018-12-14T08:55:54.673Z,765
2018-12-14T08:56:55.152Z,776.25
2018-12-14T08:57:56.339Z,607.5
2018-12-14T08:58:56.491Z,405
2018-12-14T08:59:57.470Z,360
2018-12-14T09:00:57.893Z,360
2018-12-14T09:01:58.551Z,376.88
2018-12-14T09:02:58.555Z,382.5
2018-12-14T09:03:59.254Z,393.75
2018-12-14T09:04:59.675Z,421.88
2018-12-14T09:06:00.653Z,472.5
2018-12-14T09:07:00.798Z,483.75
2018-12-14T09:08:01.647Z,618.75
2018-12-14T09:09:02.942Z,579.38
2018-12-14T09:10:02.923Z,517.5
2018-12-14T09:11:02.472Z,596.25
2018-12-14T09:12:03.461Z,826.88
2018-12-14T09:13:03.953Z,759.38
2018-12-14T09:14:04.174Z,613.13
2018-12-14T09:15:05.488Z,500.63
2018-12-14T09:16:07.501Z,528.75
2018-12-14T09:17:07.288Z,646.88
2018-12-14T09:18:08.530Z,810
2018-12-14T09:19:08.737Z,905.63
2018-12-14T09:20:10.752Z,894.38
2018-12-14T09:21:11.456Z,973.13
2018-12-14T09:22:12.154Z,1136.25
2018-12-14T09:23:12.578Z,1141.88
2018-12-14T09:24:12.720Z,888.75
2018-12-14T09:25:14.141Z,596.25
2018-12-14T09:26:14.295Z,720
2018-12-14T09:27:15.441Z,765
2018-12-14T09:28:16.268Z,748.13
2018-12-14T09:29:16.720Z,731.25
2018-12-14T09:30:18.421Z,866.25
2018-12-14T09:31:18.849Z,815.63
2018-12-14T09:32:18.996Z,1811.25
2018-12-14T09:33:20.891Z,708.75
2018-12-14T09:34:21.591Z,686.25
2018-12-14T09:35:22.019Z,1243.13
2018-12-14T09:36:22.996Z,894.38
2018-12-14T09:37:23.427Z,1051.88
2018-12-14T09:38:24.557Z,573.75
2018-12-14T09:39:24.694Z,669.38
2018-12-14T09:40:25.415Z,1670.63
2018-12-14T09:41:26.448Z,1344.38
2018-12-14T09:42:27.156Z,1625.63
2018-12-14T09:43:28.416Z,1215
2018-12-14T09:44:27.841Z,506.25
2018-12-14T09:45:28.831Z,691.88
2018-12-14T09:46:28.978Z,708.75
2018-12-14T09:47:30.409Z,973.13
2018-12-14T09:48:31.233Z,1366.88
2018-12-14T09:49:31.863Z,1648.13
2018-12-14T09:50:32.354Z,1873.13
2018-12-14T09:51:33.345Z,1968.75
2018-12-14T09:52:33.497Z,1136.25
2018-12-14T09:53:35.202Z,798.75
2018-12-14T09:54:36.459Z,1800
2018-12-14T09:55:36.163Z,1383.75
2018-12-14T09:56:36.321Z,916.88
2018-12-14T09:57:38.019Z,703.13
2018-12-14T09:58:39.041Z,1231.88
2018-12-14T09:59:39.747Z,1648.13
2018-12-14T10:00:40.459Z,1305
2018-12-14T10:01:40.870Z,804.38
2018-12-14T10:02:41.650Z,663.75
2018-12-14T10:03:42.597Z,759.38
2018-12-14T10:04:43.679Z,1282.5
2018-12-14T10:05:44.382Z,2430
2018-12-14T10:06:45.087Z,2559.38
2018-12-14T10:07:49.682Z,2604.38
2018-12-14T10:08:50.706Z,2503.13
2018-12-14T10:09:51.157Z,2514.38
2018-12-14T10:10:51.306Z,2531.25
2018-12-14T10:11:57.617Z,2655
2018-12-14T10:12:57.778Z,2773.13
2018-12-14T10:14:02.949Z,2643.75
2018-12-14T10:15:04.377Z,1923.75
2018-12-14T10:16:04.808Z,2103.75
2018-12-14T10:17:05.513Z,2593.13
2018-12-14T10:18:07.165Z,2497.5
2018-12-14T10:19:07.836Z,2610
2018-12-14T10:20:08.558Z,2638.13
2018-12-14T10:21:08.707Z,2430
2018-12-14T10:22:10.147Z,2120.63
2018-12-14T10:23:11.129Z,1861.88
2018-12-14T10:24:11.322Z,1591.88
2018-12-14T10:25:13.306Z,1670.63
2018-12-14T10:26:14.054Z,1805.63
2018-12-14T10:27:15.691Z,1884.38
2018-12-14T10:28:16.648Z,1957.5
2018-12-14T10:29:16.774Z,2148.75
2018-12-14T10:30:18.594Z,2103.75
2018-12-14T10:31:18.022Z,1906.88
2018-12-14T10:32:20.004Z,1890
2018-12-14T10:33:20.574Z,1811.25
2018-12-14T10:34:22.039Z,1839.38
2018-12-14T10:35:21.843Z,1991.25
2018-12-14T10:36:22.548Z,2283.75
2018-12-14T10:37:23.582Z,2514.38
2018-12-14T10:38:24.576Z,2615.63
2018-12-14T10:39:24.975Z,2750.63
2018-12-14T10:40:25.190Z,2660.63
2018-12-14T10:41:26.347Z,2565
2018-12-14T10:42:27.335Z,2773.13
2018-12-14T10:43:27.735Z,2773.13
2018-12-14T10:44:32.453Z,2880
2018-12-14T10:45:33.108Z,2930.63
2018-12-14T10:46:34.050Z,2902.5
2018-12-14T10:47:34.922Z,2896.88
2018-12-14T10:48:35.678Z,3009.38
2018-12-14T10:49:36.538Z,3110.63
2018-12-14T10:50:41.598Z,2975.63
2018-12-14T10:51:42.749Z,2823.75
2018-12-14T10:52:44.734Z,2756.25
2018-12-14T10:53:46.275Z,2767.5
2018-12-14T10:54:45.559Z,2880
2018-12-14T10:55:47.029Z,2891.25
2018-12-14T10:56:48.035Z,2947.5
2018-12-14T10:57:50.464Z,2992.5
2018-12-14T10:58:48.912Z,2913.75
2018-12-14T10:59:50.375Z,2902.5
2018-12-14T11:00:52.861Z,2761.88
2018-12-14T11:01:52.686Z,2064.38
2018-12-14T11:02:54.245Z,1710
2018-12-14T11:03:53.734Z,1771.88
2018-12-14T11:04:54.443Z,2430
2018-12-14T11:05:54.628Z,2795.63
2018-12-14T11:06:56.415Z,2250
2018-12-14T11:07:57.398Z,1608.75
2018-12-14T11:08:57.438Z,2064.38
2018-12-14T11:09:58.037Z,2801.25
2018-12-14T11:10:59.192Z,2767.5
2018-12-14T11:12:00.653Z,2846.25
2018-12-14T11:13:01.076Z,2998.13
2018-12-14T11:14:01.888Z,2998.13
2018-12-14T11:15:04.514Z,2902.5
2018-12-14T11:16:04.199Z,2452.5
2018-12-14T11:17:05.463Z,1749.38
2018-12-14T11:18:05.174Z,1119.38
2018-12-14T11:19:05.878Z,1704.38
2018-12-14T11:20:07.192Z,2559.38
2018-12-14T11:21:07.626Z,2694.38
2018-12-14T11:22:08.333Z,2919.38
2018-12-14T11:23:09.052Z,2986.88
2018-12-14T11:24:09.486Z,2745
2018-12-14T11:25:11.237Z,2683.13
2018-12-14T11:26:11.883Z,2475
2018-12-14T11:27:12.037Z,1541.25
2018-12-14T11:28:13.463Z,1676.25
2018-12-14T11:29:13.617Z,1530
2018-12-14T11:30:15.587Z,708.75
2018-12-14T11:31:15.322Z,646.88
2018-12-14T11:32:16.028Z,1035
2018-12-14T11:33:16.179Z,2064.38
2018-12-14T11:34:17.607Z,2182.5
2018-12-14T11:35:17.765Z,1400.63
2018-12-14T11:36:18.909Z,871.88
2018-12-14T11:37:20.337Z,686.25
2018-12-14T11:38:20.763Z,697.5
2018-12-14T11:39:21.264Z,1186.88
2018-12-14T11:40:21.814Z,2199.38
2018-12-14T11:41:21.970Z,2362.5
2018-12-14T11:42:23.421Z,2407.5
2018-12-14T11:43:24.124Z,2205
2018-12-14T11:44:24.552Z,1389.38
2018-12-14T11:45:26.050Z,708.75
2018-12-14T11:46:26.815Z,714.38
2018-12-14T11:47:28.894Z,1440
2018-12-14T11:48:28.953Z,1665
2018-12-14T11:49:29.417Z,1530
2018-12-14T11:50:30.323Z,1440
2018-12-14T11:51:32.030Z,1080
2018-12-14T11:52:32.481Z,945
2018-12-14T11:53:33.024Z,1260
2018-12-14T11:54:34.282Z,1361.25
2018-12-14T11:55:34.662Z,1440
2018-12-14T11:56:35.088Z,1428.75
2018-12-14T11:57:35.247Z,950.63
2018-12-14T11:58:36.955Z,1130.63
2018-12-14T11:59:37.383Z,1535.63
2018-12-14T12:00:38.265Z,1732.5
2018-12-14T12:01:38.465Z,1209.38
2018-12-14T12:02:51.891Z,1181.25
2018-12-14T12:03:52.290Z,1620
2018-12-14T12:04:54.003Z,1800
2018-12-14T12:05:54.778Z,1906.88
2018-12-14T12:06:56.147Z,1755
2018-12-14T12:07:57.305Z,1575
2018-12-14T12:08:57.717Z,1760.63
2018-12-14T12:09:59.395Z,2030.63
2018-12-14T12:10:59.535Z,2064.38
2018-12-14T12:12:00.590Z,2081.25
2018-12-14T12:13:00.648Z,1940.63
2018-12-14T12:14:01.419Z,1704.38
2018-12-14T12:15:02.472Z,1670.63
2018-12-14T12:16:03.517Z,1800
2018-12-14T12:17:03.668Z,1698.75
2018-12-14T12:18:05.038Z,1513.13
2018-12-14T12:19:05.716Z,905.63
2018-12-14T12:20:05.858Z,849.38
2018-12-14T12:21:06.765Z,821.25
2018-12-14T12:22:10.607Z,1209.38
2018-12-14T12:23:10.154Z,1243.13
2018-12-14T12:24:08.419Z,1265.63
2018-12-14T12:25:09.893Z,849.38
2018-12-14T12:26:09.757Z,534.38
2018-12-14T12:27:10.188Z,500.63
2018-12-14T12:28:13.677Z,1243.13
2018-12-14T12:29:12.906Z,1012.5
2018-12-14T12:30:13.277Z,601.88
2018-12-14T12:31:16.712Z,371.25
2018-12-14T12:32:16.181Z,354.38
2018-12-14T12:33:16.640Z,343.13
2018-12-14T12:34:17.931Z,343.13
2018-12-14T12:35:18.510Z,337.5
2018-12-14T12:36:19.164Z,365.63
2018-12-14T12:37:20.755Z,421.88
2018-12-14T12:38:20.790Z,405
2018-12-14T12:39:22.030Z,320.63
2018-12-14T12:40:25.670Z,281.25
2018-12-14T12:41:26.310Z,281.25
2018-12-14T12:42:24.927Z,275.63
2018-12-14T12:43:26.098Z,275.63
2018-12-14T12:44:26.124Z,270
2018-12-14T12:45:27.107Z,264.38
2018-12-14T12:46:27.847Z,258.75
2018-12-14T12:47:28.271Z,258.75
2018-12-14T12:48:29.526Z,241.88
2018-12-14T12:49:29.672Z,241.88
2018-12-14T12:50:35.496Z,241.88
2018-12-14T12:50:42.602Z,230.63
2018-12-14T12:51:42.665Z,230.63
2018-12-14T12:52:43.367Z,230.63
2018-12-14T12:53:44.845Z,230.63
2018-12-14T12:54:45.274Z,230.63
2018-12-14T12:55:47.142Z,230.63
2018-12-14T12:56:47.391Z,236.25
2018-12-14T12:57:47.542Z,230.63
2018-12-14T12:58:48.244Z,230.63
2018-12-14T12:59:48.956Z,225
2018-12-14T13:00:53.282Z,225
2018-12-14T13:01:50.299Z,230.63
2018-12-14T13:02:52.791Z,236.25
2018-12-14T13:03:58.508Z,241.88
2018-12-14T13:04:09.527Z,241.88
2018-12-14T13:04:19.773Z,241.88
2018-12-14T13:05:21.394Z,241.88
2018-12-14T13:06:20.075Z,236.25
2018-12-14T13:07:22.233Z,236.25
2018-12-14T13:08:23.862Z,236.25
2018-12-14T13:09:24.600Z,230.63
2018-12-14T13:10:23.822Z,225
2018-12-14T13:11:23.453Z,219.38
2018-12-14T13:12:23.597Z,208.13
2018-12-14T13:13:25.298Z,196.88
2018-12-14T13:14:26.008Z,191.25
2018-12-14T13:15:26.889Z,185.63
2018-12-14T13:16:27.590Z,185.63
2018-12-14T13:17:42.212Z,180
2018-12-14T13:18:41.158Z,174.38
2018-12-14T13:19:41.583Z,174.38
2018-12-14T13:20:42.014Z,174.38
2018-12-14T13:21:42.715Z,180
2018-12-14T13:22:43.134Z,191.25
2018-12-14T13:23:44.332Z,202.5
2018-12-14T13:24:44.799Z,208.13
2018-12-14T13:25:45.225Z,213.75
2018-12-14T13:26:48.082Z,213.75
2018-12-14T13:27:48.592Z,213.75
2018-12-14T13:28:48.210Z,219.38
2018-12-14T13:29:48.629Z,219.38
2018-12-14T13:30:52.843Z,213.75
2018-12-14T13:31:53.445Z,208.13
2018-12-14T13:33:11.970Z,196.88
2018-12-14T13:33:24.396Z,191.25
2018-12-14T13:33:34.326Z,191.25
2018-12-14T13:33:44.452Z,191.25
2018-12-14T13:34:42.638Z,180
2018-12-14T13:35:44.057Z,168.75
2018-12-14T13:36:44.201Z,157.5
2018-12-14T13:37:44.948Z,146.25
2018-12-14T13:38:45.750Z,135
2018-12-14T13:39:46.530Z,129.38
2018-12-14T13:40:48.282Z,118.13
2018-12-14T13:41:48.086Z,118.13
2018-12-14T13:42:49.137Z,112.5
2018-12-14T13:43:50.460Z,118.13